Gaz Unity — HOEJ — position and weather

sailwx.info

Track history (hours):
 
Tides and Currents Weather Stations Pressure Air Temp Water Temp Dewpoint Dewpoint Depression Visibility Wind Speed Wind Dir Waves Ship Positions

Gaz Unity

Last reported at 2015-Sep-04 22:33 UTC. Time now 2015-Sep-04 23:12 UTC.
Position N 35°37' E 015°07'.

Length 228 m; draft 9.9 m.

Type: Ship (hazmat cat C). MMSI: 353956000.

Date/timePositionNaut miles runAvg speedWind from/ knotsBaromVisibWave heightAir tempDewpointWater temp
2015-Sep-04 22:33N 35°37' E 015°07'0 0.3
2015-Sep-04 21:33N 35°37' E 015°07'0 0.2
2015-Sep-04 20:32N 35°36' E 015°07'0 0.1
2015-Sep-04 19:33N 35°36' E 015°07'0 0.1
2015-Sep-04 18:33N 35°36' E 015°06'0 0.2
2015-Sep-04 17:33N 35°36' E 015°06'0 0.2
2015-Sep-04 16:33N 35°36' E 015°06'0 0.3
2015-Sep-04 15:33N 35°36' E 015°06'0 0.4
2015-Sep-04 14:33N 35°36' E 015°05'0 0.4
2015-Sep-04 13:34N 35°37' E 015°05'0 0.4
2015-Sep-04 12:33N 35°37' E 015°04'0 0.4
2015-Sep-04 11:32N 35°37' E 015°04'0 0.4
2015-Sep-04 10:33N 35°37' E 015°03'0 0.5
2015-Sep-04 09:33N 35°37' E 015°03'0 0.5
2015-Sep-04 08:33N 35°37' E 015°02'0 0.3
2015-Sep-04 07:33N 35°37' E 015°02'2 1.5
2015-Sep-04 06:33N 35°35' E 015°03'5 5.3
2015-Sep-04 05:33N 35°34' E 015°09'0 0.2
2015-Sep-04 04:33N 35°34' E 015°09'0 0.4
2015-Sep-04 03:33N 35°34' E 015°09'0 0.4
2015-Sep-04 02:33N 35°34' E 015°08'0 0.5
2015-Sep-04 01:34N 35°34' E 015°08'0 0.5
2015-Sep-04 00:33N 35°35' E 015°07'0 0.5
2015-Sep-03 23:33N 35°35' E 015°07'1 0.6
2015-Sep-03 22:33N 35°35' E 015°06'1 0.6
2015-Sep-03 21:33N 35°36' E 015°06'0 0.5
2015-Sep-03 20:33N 35°36' E 015°05'0 0.5
2015-Sep-03 19:33N 35°36' E 015°05'1 0.6
2015-Sep-03 18:33N 35°37' E 015°04'1 0.7
2015-Sep-03 17:33N 35°37' E 015°04'21 2.0
2015-Sep-03 07:15N 35°17' E 015°07'1 0.8
2015-Sep-03 06:26N 35°17' E 015°06'1 0.8
2015-Sep-03 05:33N 35°17' E 015°06'1 0.8
2015-Sep-03 04:31N 35°18' E 015°05'1 0.8
2015-Sep-03 03:23N 35°19' E 015°04'1 0.8
2015-Sep-03 02:27N 35°19' E 015°03'1 0.8
2015-Sep-03 01:28N 35°20' E 015°03'2 0.8
2015-Sep-02 22:33N 35°21' E 015°01'1 0.7
2015-Sep-02 21:33N 35°22' E 015°01'1 0.7
2015-Sep-02 20:33N 35°23' E 015°00'1 0.6
2015-Sep-02 19:30N 35°23' E 015°00'1 0.7
2015-Sep-02 18:32N 35°24' E 014°60'1 0.8
2015-Sep-02 17:09N 35°25' E 014°59'0 0.8
2015-Sep-02 16:33N 35°25' E 014°59'7 0.5
2015-Sep-02 01:12N 35°29' E 014°51'0 0.2
2015-Sep-02 00:33N 35°29' E 014°51'0 0.2
2015-Sep-01 23:34N 35°29' E 014°51'0 0.1
2015-Sep-01 22:33N 35°30' E 014°51'10 0.4
2015-Sep-01 00:17N 35°20' E 014°49'0 0.6
2015-Aug-31 23:25N 35°20' E 014°49'1 0.6
2015-Aug-31 21:33N 35°22' E 014°49'10 0.5
2015-Aug-31 00:33N 35°31' E 014°53'1 0.0
2015-Aug-29 06:09N 35°30' E 014°53'1 0.3
2015-Aug-29 03:19N 35°31' E 014°54'0 0.2
2015-Aug-29 02:08N 35°31' E 014°54'0 0.2
2015-Aug-29 01:33N 35°31' E 014°54'0 0.2
2015-Aug-29 00:24N 35°31' E 014°54'1 0.3
2015-Aug-28 22:33N 35°31' E 014°55'0 0.4
2015-Aug-28 21:28N 35°31' E 014°55'0 0.4
2015-Aug-28 20:33N 35°31' E 014°56'0 0.4
2015-Aug-28 19:33N 35°31' E 014°56'0 0.4
2015-Aug-28 18:33N 35°31' E 014°57'0 0.5
2015-Aug-28 17:33N 35°31' E 014°58'1 0.6
2015-Aug-28 15:34N 35°31' E 014°59'2 0.3
2015-Aug-28 09:34N 35°32' E 014°58'15 0.5
2015-Aug-27 05:33N 35°47' E 014°54'0 0.0
2015-Aug-27 04:33N 35°47' E 014°54'0 0.0
2015-Aug-27 03:30N 35°47' E 014°54'0 0.0
2015-Aug-27 02:30N 35°47' E 014°54'0 0.0
2015-Aug-27 01:33N 35°47' E 014°54'0 0.0
2015-Aug-27 00:33N 35°47' E 014°54'0 0.0
2015-Aug-26 23:21N 35°47' E 014°54'0 0.0
2015-Aug-26 22:27N 35°47' E 014°54'0 0.1
2015-Aug-26 21:30N 35°47' E 014°54'0 0.0
2015-Aug-26 20:24N 35°47' E 014°54'0 0.0
2015-Aug-26 18:33N 35°47' E 014°54'0 0.1
2015-Aug-26 17:03N 35°47' E 014°54'0 0.1
2015-Aug-26 16:21N 35°47' E 014°54'1 0.1
2015-Aug-26 07:11N 35°46' E 014°54'3 5.0
2015-Aug-26 06:32N 35°43' E 014°53'4 4.3
2015-Aug-26 05:34N 35°39' E 014°51'0 0.3
2015-Aug-26 04:33N 35°40' E 014°51'0 0.3
2015-Aug-26 03:33N 35°40' E 014°51'0 0.3
2015-Aug-26 02:34N 35°40' E 014°51'0 0.3
2015-Aug-26 01:34N 35°40' E 014°51'0 0.3
2015-Aug-26 00:34N 35°40' E 014°50'0 0.3
2015-Aug-25 23:34N 35°41' E 014°50'0 0.3
2015-Aug-25 22:34N 35°41' E 014°50'  
Track history (hours):
 
Tides and Currents Weather Stations Pressure Air Temp Water Temp Dewpoint Dewpoint Depression Visibility Wind Speed Wind Dir Waves Ship Positions

Gaz Unity

Last reported at 2015-Sep-04 22:33 UTC. Time now 2015-Sep-04 23:12 UTC.
Position N 35°37' E 015°07'.

Length 228 m; draft 9.9 m.

Type: Ship (hazmat cat C). MMSI: 353956000.

Date/timePositionNaut miles runAvg speedWind from/ knotsBaromVisibWave heightAir tempDewpointWater temp
2015-Sep-04 22:33N 35°37' E 015°07'0 0.3
2015-Sep-04 21:33N 35°37' E 015°07'0 0.2
2015-Sep-04 20:32N 35°36' E 015°07'0 0.1
2015-Sep-04 19:33N 35°36' E 015°07'0 0.1
2015-Sep-04 18:33N 35°36' E 015°06'0 0.2
2015-Sep-04 17:33N 35°36' E 015°06'0 0.2
2015-Sep-04 16:33N 35°36' E 015°06'0 0.3
2015-Sep-04 15:33N 35°36' E 015°06'0 0.4
2015-Sep-04 14:33N 35°36' E 015°05'0 0.4
2015-Sep-04 13:34N 35°37' E 015°05'0 0.4
2015-Sep-04 12:33N 35°37' E 015°04'0 0.4
2015-Sep-04 11:32N 35°37' E 015°04'0 0.4
2015-Sep-04 10:33N 35°37' E 015°03'0 0.5
2015-Sep-04 09:33N 35°37' E 015°03'0 0.5
2015-Sep-04 08:33N 35°37' E 015°02'0 0.3
2015-Sep-04 07:33N 35°37' E 015°02'2 1.5
2015-Sep-04 06:33N 35°35' E 015°03'5 5.3
2015-Sep-04 05:33N 35°34' E 015°09'0 0.2
2015-Sep-04 04:33N 35°34' E 015°09'0 0.4
2015-Sep-04 03:33N 35°34' E 015°09'0 0.4
2015-Sep-04 02:33N 35°34' E 015°08'0 0.5
2015-Sep-04 01:34N 35°34' E 015°08'0 0.5
2015-Sep-04 00:33N 35°35' E 015°07'0 0.5
2015-Sep-03 23:33N 35°35' E 015°07'1 0.6
2015-Sep-03 22:33N 35°35' E 015°06'1 0.6
2015-Sep-03 21:33N 35°36' E 015°06'0 0.5
2015-Sep-03 20:33N 35°36' E 015°05'0 0.5
2015-Sep-03 19:33N 35°36' E 015°05'1 0.6
2015-Sep-03 18:33N 35°37' E 015°04'1 0.7
2015-Sep-03 17:33N 35°37' E 015°04'21 2.0
2015-Sep-03 07:15N 35°17' E 015°07'1 0.8
2015-Sep-03 06:26N 35°17' E 015°06'1 0.8
2015-Sep-03 05:33N 35°17' E 015°06'1 0.8
2015-Sep-03 04:31N 35°18' E 015°05'1 0.8
2015-Sep-03 03:23N 35°19' E 015°04'1 0.8
2015-Sep-03 02:27N 35°19' E 015°03'1 0.8
2015-Sep-03 01:28N 35°20' E 015°03'2 0.8
2015-Sep-02 22:33N 35°21' E 015°01'1 0.7
2015-Sep-02 21:33N 35°22' E 015°01'1 0.7
2015-Sep-02 20:33N 35°23' E 015°00'1 0.6
2015-Sep-02 19:30N 35°23' E 015°00'1 0.7
2015-Sep-02 18:32N 35°24' E 014°60'1 0.8
2015-Sep-02 17:09N 35°25' E 014°59'0 0.8
2015-Sep-02 16:33N 35°25' E 014°59'7 0.5
2015-Sep-02 01:12N 35°29' E 014°51'0 0.2
2015-Sep-02 00:33N 35°29' E 014°51'0 0.2
2015-Sep-01 23:34N 35°29' E 014°51'0 0.1
2015-Sep-01 22:33N 35°30' E 014°51'10 0.4
2015-Sep-01 00:17N 35°20' E 014°49'0 0.6
2015-Aug-31 23:25N 35°20' E 014°49'1 0.6
2015-Aug-31 21:33N 35°22' E 014°49'10 0.5
2015-Aug-31 00:33N 35°31' E 014°53'1 0.0
2015-Aug-29 06:09N 35°30' E 014°53'1 0.3
2015-Aug-29 03:19N 35°31' E 014°54'0 0.2
2015-Aug-29 02:08N 35°31' E 014°54'0 0.2
2015-Aug-29 01:33N 35°31' E 014°54'0 0.2
2015-Aug-29 00:24N 35°31' E 014°54'1 0.3
2015-Aug-28 22:33N 35°31' E 014°55'0 0.4
2015-Aug-28 21:28N 35°31' E 014°55'0 0.4
2015-Aug-28 20:33N 35°31' E 014°56'0 0.4
2015-Aug-28 19:33N 35°31' E 014°56'0 0.4
2015-Aug-28 18:33N 35°31' E 014°57'0 0.5
2015-Aug-28 17:33N 35°31' E 014°58'1 0.6
2015-Aug-28 15:34N 35°31' E 014°59'2 0.3
2015-Aug-28 09:34N 35°32' E 014°58'15 0.5
2015-Aug-27 05:33N 35°47' E 014°54'0 0.0
2015-Aug-27 04:33N 35°47' E 014°54'0 0.0
2015-Aug-27 03:30N 35°47' E 014°54'0 0.0
2015-Aug-27 02:30N 35°47' E 014°54'0 0.0
2015-Aug-27 01:33N 35°47' E 014°54'0 0.0
2015-Aug-27 00:33N 35°47' E 014°54'0 0.0
2015-Aug-26 23:21N 35°47' E 014°54'0 0.0
2015-Aug-26 22:27N 35°47' E 014°54'0 0.1
2015-Aug-26 21:30N 35°47' E 014°54'0 0.0
2015-Aug-26 20:24N 35°47' E 014°54'0 0.0
2015-Aug-26 18:33N 35°47' E 014°54'0 0.1
2015-Aug-26 17:03N 35°47' E 014°54'0 0.1
2015-Aug-26 16:21N 35°47' E 014°54'1 0.1
2015-Aug-26 07:11N 35°46' E 014°54'3 5.0
2015-Aug-26 06:32N 35°43' E 014°53'4 4.3
2015-Aug-26 05:34N 35°39' E 014°51'0 0.3
2015-Aug-26 04:33N 35°40' E 014°51'0 0.3
2015-Aug-26 03:33N 35°40' E 014°51'0 0.3
2015-Aug-26 02:34N 35°40' E 014°51'0 0.3
2015-Aug-26 01:34N 35°40' E 014°51'0 0.3
2015-Aug-26 00:34N 35°40' E 014°50'0 0.3
2015-Aug-25 23:34N 35°41' E 014°50'0 0.3
2015-Aug-25 22:34N 35°41' E 014°50'  

Dump ship's entire track history